createdAt,value
2019-03-26T00:00:24.013Z,14.83
2019-03-26T00:00:55.322Z,14.95
2019-03-26T00:01:26.637Z,13.10
2019-03-26T00:01:57.945Z,12.13
2019-03-26T00:02:29.298Z,12.63
2019-03-26T00:03:00.587Z,12.03
2019-03-26T00:03:31.893Z,11.05
2019-03-26T00:04:06.084Z,14.15
2019-03-26T00:04:36.210Z,11.20
2019-03-26T00:05:07.507Z,10.90
2019-03-26T00:05:38.843Z,12.63
2019-03-26T00:06:10.105Z,14.20
2019-03-26T00:06:41.399Z,11.10
2019-03-26T00:07:12.716Z,14.70
2019-03-26T00:07:44.079Z,11.15
2019-03-26T00:08:15.394Z,12.50
2019-03-26T00:08:46.710Z,14.47
2019-03-26T00:09:18.062Z,16.12
2019-03-26T00:09:49.459Z,13.05
2019-03-26T00:10:20.786Z,10.18
2019-03-26T00:10:52.124Z,14.10
2019-03-26T00:11:23.431Z,13.58
2019-03-26T00:11:54.789Z,17.95
2019-03-26T00:12:26.100Z,14.85
2019-03-26T00:12:57.403Z,14.03
2019-03-26T00:13:28.711Z,15.43
2019-03-26T00:14:00.005Z,15.23
2019-03-26T00:14:31.325Z,12.82
2019-03-26T00:15:02.685Z,14.07
2019-03-26T00:15:33.998Z,16.97
2019-03-26T00:16:05.303Z,17.12
2019-03-26T00:16:36.621Z,15.20
2019-03-26T00:17:07.911Z,16.70
2019-03-26T00:17:39.268Z,15.83
2019-03-26T00:18:10.607Z,15.68
2019-03-26T00:18:41.913Z,17.75
2019-03-26T00:19:13.248Z,17.42
2019-03-26T00:19:44.584Z,17.70
2019-03-26T00:20:15.892Z,19.80
2019-03-26T00:20:47.204Z,18.37
2019-03-26T00:21:18.491Z,16.25
2019-03-26T00:21:49.804Z,18.57
2019-03-26T00:22:21.105Z,18.90
2019-03-26T00:22:52.476Z,18.90
2019-03-26T00:23:23.778Z,19.45
2019-03-26T00:23:55.111Z,18.37
2019-03-26T00:24:26.410Z,19.92
2019-03-26T00:24:57.698Z,18.45
2019-03-26T00:25:29.020Z,17.15
2019-03-26T00:26:00.333Z,17.07
2019-03-26T00:26:31.650Z,17.02
2019-03-26T00:27:02.953Z,17.42
2019-03-26T00:27:34.310Z,18.25
2019-03-26T00:28:05.634Z,17.87
2019-03-26T00:28:36.944Z,16.23
2019-03-26T00:29:08.254Z,17.52
2019-03-26T00:29:39.554Z,16.55
2019-03-26T00:30:10.869Z,17.10
2019-03-26T00:30:42.160Z,16.30
2019-03-26T00:31:13.458Z,16.77
2019-03-26T00:31:44.765Z,16.07
2019-03-26T00:32:16.058Z,17.67
2019-03-26T00:32:47.419Z,18.73
2019-03-26T00:33:18.726Z,17.98
2019-03-26T00:33:50.134Z,16.48
2019-03-26T00:34:21.448Z,17.52
2019-03-26T00:34:52.752Z,14.30
2019-03-26T00:35:24.068Z,15.28
2019-03-26T00:35:55.378Z,15.70
2019-03-26T00:36:26.709Z,17.55
2019-03-26T00:36:58.017Z,16.52
2019-03-26T00:37:29.308Z,16.27
2019-03-26T00:38:00.665Z,15.95
2019-03-26T00:38:32.015Z,16.82
2019-03-26T00:39:03.345Z,17.15
2019-03-26T00:39:34.676Z,16.90
2019-03-26T00:40:05.964Z,16.35
2019-03-26T00:40:40.089Z,14.70
2019-03-26T00:41:10.300Z,15.70
2019-03-26T00:41:41.641Z,17.57
2019-03-26T00:42:12.957Z,15.15
2019-03-26T00:42:44.252Z,15.63
2019-03-26T00:43:15.552Z,13.53
2019-03-26T00:43:46.937Z,13.50
2019-03-26T00:44:18.256Z,14.18
2019-03-26T00:44:49.546Z,15.30
2019-03-26T00:45:20.901Z,13.32
2019-03-26T00:45:52.196Z,16.12
2019-03-26T00:46:23.519Z,21.40
2019-03-26T00:46:54.815Z,18.00
2019-03-26T00:47:26.119Z,14.87
2019-03-26T00:47:57.489Z,16.45
2019-03-26T00:48:28.789Z,17.30
2019-03-26T00:49:00.088Z,15.18
2019-03-26T00:49:31.383Z,16.27
2019-03-26T00:50:02.703Z,17.77
2019-03-26T00:50:33.999Z,16.82
2019-03-26T00:51:05.292Z,17.07
2019-03-26T00:51:36.634Z,17.20
2019-03-26T00:52:07.954Z,17.42
2019-03-26T00:52:39.271Z,16.87
2019-03-26T00:53:10.592Z,18.67
2019-03-26T00:53:41.886Z,17.23
2019-03-26T00:54:13.184Z,17.32
2019-03-26T00:54:44.497Z,17.70
2019-03-26T00:55:22.371Z,17.67
2019-03-26T00:55:48.826Z,17.45
2019-03-26T00:56:20.142Z,16.05
2019-03-26T00:56:51.478Z,15.90
2019-03-26T00:57:22.775Z,18.20
2019-03-26T00:57:54.075Z,15.00
2019-03-26T00:58:25.430Z,15.68
2019-03-26T00:58:56.758Z,14.53
2019-03-26T00:59:28.107Z,18.82
2019-03-26T00:59:59.455Z,17.00
2019-03-26T01:00:30.777Z,15.78
2019-03-26T01:01:02.071Z,16.07
2019-03-26T01:01:33.389Z,14.85
2019-03-26T01:02:04.770Z,16.48
2019-03-26T01:02:36.078Z,19.17
2019-03-26T01:03:07.372Z,14.95
2019-03-26T01:03:38.671Z,16.67
2019-03-26T01:04:09.969Z,18.60
2019-03-26T01:04:41.269Z,20.92
2019-03-26T01:05:12.595Z,18.30
2019-03-26T01:05:43.926Z,18.10
2019-03-26T01:06:15.312Z,19.32
2019-03-26T01:06:46.624Z,18.98
2019-03-26T01:07:17.931Z,16.90
2019-03-26T01:07:49.218Z,19.80
2019-03-26T01:08:20.519Z,22.87
2019-03-26T01:08:51.864Z,18.67
2019-03-26T01:09:23.189Z,20.30
2019-03-26T01:09:54.527Z,16.37
2019-03-26T01:10:25.821Z,17.27
2019-03-26T01:10:57.124Z,19.10
2019-03-26T01:11:28.429Z,19.23
2019-03-26T01:11:59.714Z,19.92
2019-03-26T01:12:31.295Z,22.13
2019-03-26T01:13:02.826Z,26.35
2019-03-26T01:13:34.195Z,21.75
2019-03-26T01:14:05.541Z,27.60
2019-03-26T01:14:36.851Z,20.88
2019-03-26T01:15:08.158Z,25.27
2019-03-26T01:15:39.482Z,23.65
2019-03-26T01:16:10.786Z,22.70
2019-03-26T01:16:42.093Z,20.45
2019-03-26T01:17:13.408Z,22.05
2019-03-26T01:17:44.747Z,20.95
2019-03-26T01:18:16.133Z,25.55
2019-03-26T01:18:47.437Z,26.90
2019-03-26T01:19:18.730Z,24.50
2019-03-26T01:19:50.023Z,26.27
2019-03-26T01:20:21.360Z,26.42
2019-03-26T01:20:52.659Z,28.35
2019-03-26T01:21:24.006Z,24.80
2019-03-26T01:21:55.300Z,28.40
2019-03-26T01:22:26.587Z,26.40
2019-03-26T01:22:57.878Z,27.30
2019-03-26T01:23:29.247Z,26.73
2019-03-26T01:24:00.555Z,28.42
2019-03-26T01:24:31.871Z,27.85
2019-03-26T01:25:03.177Z,26.20
2019-03-26T01:25:34.563Z,29.48
2019-03-26T01:26:05.911Z,25.77
2019-03-26T01:26:37.206Z,27.20
2019-03-26T01:27:08.509Z,27.10
2019-03-26T01:27:39.815Z,25.80
2019-03-26T01:28:11.151Z,27.42
2019-03-26T01:28:42.457Z,25.02
2019-03-26T01:29:13.762Z,29.67
2019-03-26T01:29:45.118Z,28.10
2019-03-26T01:30:16.405Z,28.20
2019-03-26T01:30:47.790Z,25.43
2019-03-26T01:31:19.088Z,25.75
2019-03-26T01:31:50.390Z,29.40
2019-03-26T01:32:21.709Z,26.40
2019-03-26T01:32:53.039Z,26.60
2019-03-26T01:33:24.352Z,25.72
2019-03-26T01:33:55.661Z,26.70
2019-03-26T01:34:27.008Z,27.27
2019-03-26T01:34:58.322Z,26.42
2019-03-26T01:35:29.625Z,25.80
2019-03-26T01:36:00.981Z,29.70
2019-03-26T01:36:32.275Z,26.95
2019-03-26T01:37:03.562Z,27.98
2019-03-26T01:37:34.855Z,25.80
2019-03-26T01:38:06.184Z,26.37
2019-03-26T01:38:37.542Z,25.95
2019-03-26T01:39:08.850Z,28.50
2019-03-26T01:39:40.161Z,25.88
2019-03-26T01:40:11.453Z,31.65
2019-03-26T01:40:42.757Z,25.88
2019-03-26T01:41:14.070Z,27.35
2019-03-26T01:41:45.350Z,25.10
2019-03-26T01:42:17.778Z,25.80
2019-03-26T01:42:49.081Z,27.30
2019-03-26T01:43:20.427Z,28.73
2019-03-26T01:43:51.728Z,24.47
2019-03-26T01:44:23.027Z,24.40
2019-03-26T01:44:54.344Z,25.45
2019-03-26T01:45:25.643Z,25.75
2019-03-26T01:45:56.973Z,24.40
2019-03-26T01:46:28.277Z,23.98
2019-03-26T01:46:59.585Z,24.10
2019-03-26T01:47:30.903Z,26.33
2019-03-26T01:48:02.204Z,27.25
2019-03-26T01:48:33.545Z,23.55
2019-03-26T01:49:04.893Z,27.52
2019-03-26T01:49:36.229Z,23.95
2019-03-26T01:50:07.520Z,24.63
2019-03-26T01:50:38.816Z,24.65
2019-03-26T01:51:10.129Z,25.92
2019-03-26T01:51:41.430Z,22.37
2019-03-26T01:52:12.744Z,25.32
2019-03-26T01:52:44.061Z,24.47
2019-03-26T01:53:15.367Z,24.02
2019-03-26T01:53:46.737Z,23.57
2019-03-26T01:54:18.041Z,26.97
2019-03-26T01:54:49.352Z,24.72
2019-03-26T01:55:20.708Z,23.40
2019-03-26T01:55:52.015Z,24.43
2019-03-26T01:56:23.322Z,22.65
2019-03-26T01:56:54.621Z,27.50
2019-03-26T01:57:25.917Z,22.37
2019-03-26T01:57:57.210Z,22.98
2019-03-26T01:58:28.503Z,23.92
2019-03-26T01:58:59.846Z,24.00
2019-03-26T01:59:31.152Z,26.68
2019-03-26T02:00:02.484Z,25.92
2019-03-26T02:00:33.785Z,22.48
2019-03-26T02:01:05.095Z,22.02
2019-03-26T02:01:36.418Z,25.48
2019-03-26T02:02:07.716Z,22.48
2019-03-26T02:02:39.009Z,18.82
2019-03-26T02:03:10.328Z,21.33
2019-03-26T02:03:41.685Z,23.05
2019-03-26T02:04:12.986Z,23.12
2019-03-26T02:04:44.230Z,26.55
2019-03-26T02:05:15.488Z,23.65
2019-03-26T02:05:46.764Z,22.32
2019-03-26T02:06:18.013Z,21.50
2019-03-26T02:06:49.328Z,20.68
2019-03-26T02:07:20.580Z,24.77
2019-03-26T02:07:51.816Z,23.00
2019-03-26T02:08:23.062Z,26.95
2019-03-26T02:08:54.338Z,23.50
2019-03-26T02:09:25.630Z,24.67
2019-03-26T02:09:56.939Z,21.90
2019-03-26T02:10:28.217Z,25.05
2019-03-26T02:10:59.459Z,21.25
2019-03-26T02:11:30.707Z,20.48
2019-03-26T02:12:02.152Z,21.42
2019-03-26T02:12:33.410Z,20.15
2019-03-26T02:13:04.645Z,20.43
2019-03-26T02:13:35.810Z,21.82
2019-03-26T02:14:06.972Z,19.40
2019-03-26T02:14:38.178Z,20.45
2019-03-26T02:15:09.353Z,21.15
2019-03-26T02:15:40.514Z,21.25
2019-03-26T02:16:11.668Z,19.90
2019-03-26T02:16:42.844Z,21.75
2019-03-26T02:17:13.988Z,22.95
2019-03-26T02:17:45.196Z,24.45
2019-03-26T02:18:16.355Z,20.72
2019-03-26T02:18:47.529Z,22.10
2019-03-26T02:19:18.701Z,21.45
2019-03-26T02:19:49.856Z,20.27
2019-03-26T02:20:21.029Z,18.62
2019-03-26T02:20:52.187Z,16.45
2019-03-26T02:21:23.443Z,18.17
2019-03-26T02:21:54.653Z,20.60
2019-03-26T02:22:25.850Z,19.12
2019-03-26T02:22:57.051Z,18.67
2019-03-26T02:23:28.255Z,18.65
2019-03-26T02:23:59.462Z,18.35
2019-03-26T02:24:31.711Z,16.17
2019-03-26T02:25:03.179Z,17.45
2019-03-26T02:25:34.379Z,17.23
2019-03-26T02:26:05.627Z,18.10
2019-03-26T02:26:36.850Z,18.00
2019-03-26T02:27:08.070Z,18.90
2019-03-26T02:27:39.276Z,16.45
2019-03-26T02:28:10.481Z,21.27
2019-03-26T02:28:41.694Z,21.23
2019-03-26T02:29:12.908Z,18.67
2019-03-26T02:29:44.107Z,18.17
2019-03-26T02:30:15.350Z,20.75
2019-03-26T02:30:46.593Z,17.90
2019-03-26T02:31:17.791Z,18.57
2019-03-26T02:31:49.031Z,19.42
2019-03-26T02:32:20.241Z,20.52
2019-03-26T02:32:51.444Z,19.62
2019-03-26T02:33:22.779Z,19.67
2019-03-26T02:33:53.937Z,19.60
2019-03-26T02:34:25.134Z,16.70
2019-03-26T02:34:56.333Z,18.23
2019-03-26T02:35:27.559Z,19.60
2019-03-26T02:35:58.786Z,16.75
2019-03-26T02:36:30.031Z,18.77
2019-03-26T02:37:01.237Z,19.70
2019-03-26T02:37:32.452Z,21.25
2019-03-26T02:38:03.649Z,18.23
2019-03-26T02:38:34.871Z,19.42
2019-03-26T02:39:06.128Z,19.65
2019-03-26T02:39:37.362Z,17.65
2019-03-26T02:40:08.624Z,20.45
2019-03-26T02:40:39.817Z,19.05
2019-03-26T02:41:11.023Z,18.30
2019-03-26T02:41:42.227Z,18.42
2019-03-26T02:42:13.451Z,17.02
2019-03-26T02:42:44.647Z,20.00
2019-03-26T02:43:15.867Z,23.42
2019-03-26T02:43:47.115Z,19.27
2019-03-26T02:44:18.334Z,20.70
2019-03-26T02:44:49.533Z,22.27
2019-03-26T02:45:20.758Z,24.18
2019-03-26T02:45:51.956Z,19.85
2019-03-26T02:46:23.213Z,20.05
2019-03-26T02:46:54.389Z,17.98
2019-03-26T02:47:25.606Z,20.48
2019-03-26T02:47:56.812Z,19.90
2019-03-26T02:48:28.076Z,20.20
2019-03-26T02:48:59.316Z,19.07
2019-03-26T02:49:30.516Z,17.98
2019-03-26T02:50:01.724Z,17.50
2019-03-26T02:50:32.919Z,16.07
2019-03-26T02:51:04.185Z,20.43
2019-03-26T02:51:35.409Z,17.90
2019-03-26T02:52:06.633Z,19.35
2019-03-26T02:52:37.839Z,20.85
2019-03-26T02:53:09.152Z,15.72
2019-03-26T02:53:40.531Z,18.30
2019-03-26T02:54:11.738Z,17.57
2019-03-26T02:54:42.953Z,21.90
2019-03-26T02:55:14.153Z,20.32
2019-03-26T02:55:45.371Z,21.75
2019-03-26T02:56:16.929Z,23.83
2019-03-26T02:56:48.144Z,17.32
2019-03-26T02:57:19.360Z,20.62
2019-03-26T02:57:50.581Z,20.65
2019-03-26T02:58:22.163Z,22.73
2019-03-26T02:58:53.423Z,24.02
2019-03-26T02:59:24.629Z,17.65
2019-03-26T02:59:55.853Z,22.50
2019-03-26T03:00:27.069Z,19.12
2019-03-26T03:00:58.279Z,18.57
2019-03-26T03:01:29.501Z,19.75
2019-03-26T03:02:00.714Z,21.62
2019-03-26T03:02:31.908Z,19.65
2019-03-26T03:03:03.119Z,19.65
2019-03-26T03:03:34.371Z,21.27
2019-03-26T03:04:05.614Z,20.48
2019-03-26T03:04:37.781Z,21.70
2019-03-26T03:05:08.984Z,25.30
2019-03-26T03:05:40.185Z,20.50
2019-03-26T03:06:11.416Z,21.30
2019-03-26T03:06:42.609Z,20.35
2019-03-26T03:07:13.813Z,21.37
2019-03-26T03:07:45.026Z,23.10
2019-03-26T03:08:16.225Z,20.72
2019-03-26T03:08:47.442Z,22.45
2019-03-26T03:09:18.682Z,22.30
2019-03-26T03:09:49.907Z,23.35
2019-03-26T03:10:21.113Z,19.42
2019-03-26T03:10:52.378Z,20.52
2019-03-26T03:11:23.581Z,22.80
2019-03-26T03:11:54.835Z,24.32
2019-03-26T03:12:26.037Z,21.85
2019-03-26T03:12:57.246Z,23.32
2019-03-26T03:13:28.498Z,22.25
2019-03-26T03:13:59.714Z,21.65
2019-03-26T03:14:30.917Z,22.52
2019-03-26T03:15:02.113Z,22.37
2019-03-26T03:15:33.359Z,21.33
2019-03-26T03:16:04.572Z,24.00
2019-03-26T03:16:35.768Z,21.57
2019-03-26T03:17:07.015Z,26.45
2019-03-26T03:17:38.234Z,25.30
2019-03-26T03:18:09.455Z,23.50
2019-03-26T03:18:40.671Z,23.95
2019-03-26T03:19:15.584Z,27.22
2019-03-26T03:19:44.809Z,27.00
2019-03-26T03:20:16.046Z,29.30
2019-03-26T03:20:47.246Z,30.37
2019-03-26T03:21:18.444Z,29.82
2019-03-26T03:21:49.650Z,25.23
2019-03-26T03:22:20.842Z,28.77
2019-03-26T03:22:52.080Z,27.77
2019-03-26T03:23:23.285Z,24.80
2019-03-26T03:23:54.504Z,25.97
2019-03-26T03:24:25.701Z,26.02
2019-03-26T03:24:56.904Z,25.52
2019-03-26T03:25:28.111Z,24.30
2019-03-26T03:25:59.313Z,27.00
2019-03-26T03:26:30.542Z,25.12
2019-03-26T03:27:01.741Z,30.10
2019-03-26T03:27:32.954Z,29.37
2019-03-26T03:28:04.211Z,26.27
2019-03-26T03:28:35.446Z,25.82
2019-03-26T03:29:06.716Z,24.00
2019-03-26T03:29:37.912Z,25.45
2019-03-26T03:30:09.130Z,29.42
2019-03-26T03:30:40.330Z,29.30
2019-03-26T03:31:11.553Z,28.45
2019-03-26T03:31:42.791Z,28.25
2019-03-26T03:32:13.983Z,23.40
2019-03-26T03:32:45.181Z,24.85
2019-03-26T03:33:16.392Z,29.48
2019-03-26T03:33:47.614Z,28.95
2019-03-26T03:34:18.812Z,29.80
2019-03-26T03:34:50.026Z,28.50
2019-03-26T03:35:21.223Z,34.15
2019-03-26T03:35:53.539Z,29.25
2019-03-26T03:36:24.747Z,28.92
2019-03-26T03:36:56.896Z,27.77
2019-03-26T03:37:28.106Z,30.35
2019-03-26T03:37:59.374Z,29.40
2019-03-26T03:38:30.551Z,27.98
2019-03-26T03:39:01.778Z,30.72
2019-03-26T03:39:32.979Z,30.32
2019-03-26T03:40:04.194Z,30.27
2019-03-26T03:40:35.430Z,32.83
2019-03-26T03:41:06.647Z,34.10
2019-03-26T03:41:37.856Z,30.90
2019-03-26T03:42:09.060Z,30.88
2019-03-26T03:42:40.278Z,31.68
2019-03-26T03:43:11.483Z,30.68
2019-03-26T03:43:42.751Z,30.17
2019-03-26T03:44:13.920Z,31.48
2019-03-26T03:44:45.119Z,33.20
2019-03-26T03:45:16.331Z,30.32
2019-03-26T03:45:47.553Z,31.82
2019-03-26T03:46:18.766Z,31.45
2019-03-26T03:46:49.974Z,30.52
2019-03-26T03:47:21.233Z,31.20
2019-03-26T03:47:52.425Z,32.65
2019-03-26T03:48:23.626Z,32.35
2019-03-26T03:48:54.834Z,34.20
2019-03-26T03:49:26.053Z,32.33
2019-03-26T03:49:57.237Z,33.40
2019-03-26T03:50:28.484Z,34.58
2019-03-26T03:50:59.681Z,35.88
2019-03-26T03:51:30.872Z,39.78
2019-03-26T03:52:02.258Z,32.98
2019-03-26T03:52:33.493Z,35.25
2019-03-26T03:53:04.720Z,37.20
2019-03-26T03:53:35.933Z,32.70
2019-03-26T03:54:07.194Z,35.15
2019-03-26T03:54:38.451Z,33.78
2019-03-26T03:55:09.651Z,37.93
2019-03-26T03:55:40.872Z,35.10
2019-03-26T03:56:12.100Z,33.38
2019-03-26T03:56:43.321Z,38.60
2019-03-26T03:57:14.537Z,32.80
2019-03-26T03:57:45.726Z,32.40
2019-03-26T03:58:16.933Z,31.73
2019-03-26T03:58:48.161Z,36.95
2019-03-26T03:59:19.356Z,34.18
2019-03-26T03:59:50.614Z,34.75
2019-03-26T04:00:21.822Z,33.10
2019-03-26T04:00:53.015Z,32.50
2019-03-26T04:01:24.339Z,30.17
2019-03-26T04:01:55.541Z,33.90
2019-03-26T04:02:26.749Z,32.88
2019-03-26T04:02:57.957Z,35.52
2019-03-26T04:03:29.160Z,33.42
2019-03-26T04:04:00.382Z,34.27
2019-03-26T04:04:31.971Z,30.40
2019-03-26T04:05:03.198Z,38.67
2019-03-26T04:05:34.403Z,33.83
2019-03-26T04:06:09.341Z,31.82
2019-03-26T04:06:38.605Z,35.17
2019-03-26T04:07:09.832Z,32.95
2019-03-26T04:07:41.040Z,33.65
2019-03-26T04:08:12.248Z,34.70
2019-03-26T04:08:43.447Z,34.70
2019-03-26T04:09:14.648Z,35.33
2019-03-26T04:09:45.854Z,32.33
2019-03-26T04:10:17.054Z,34.40
2019-03-26T04:10:48.256Z,31.77
2019-03-26T04:11:19.524Z,37.50
2019-03-26T04:11:50.721Z,37.38
2019-03-26T04:12:21.931Z,33.78
2019-03-26T04:12:53.137Z,35.98
2019-03-26T04:13:24.341Z,34.67
2019-03-26T04:13:55.563Z,35.30
2019-03-26T04:14:26.762Z,36.85
2019-03-26T04:14:57.974Z,38.30
2019-03-26T04:15:29.182Z,32.90
2019-03-26T04:16:00.432Z,39.30
2019-03-26T04:16:31.649Z,35.52
2019-03-26T04:17:02.853Z,33.60
2019-03-26T04:17:34.076Z,36.98
2019-03-26T04:18:05.313Z,37.73
2019-03-26T04:18:36.484Z,35.10
2019-03-26T04:19:07.700Z,37.15
2019-03-26T04:19:38.898Z,33.45
2019-03-26T04:20:10.105Z,34.25
2019-03-26T04:20:41.321Z,35.70
2019-03-26T04:21:12.525Z,37.73
2019-03-26T04:21:43.746Z,35.52
2019-03-26T04:22:15.003Z,37.73
2019-03-26T04:22:46.200Z,32.48
2019-03-26T04:23:17.402Z,37.38
2019-03-26T04:23:48.607Z,34.92
2019-03-26T04:24:19.811Z,35.20
2019-03-26T04:24:51.016Z,36.25
2019-03-26T04:25:22.233Z,32.42
2019-03-26T04:25:53.438Z,30.02
2019-03-26T04:26:24.650Z,31.77
2019-03-26T04:26:55.900Z,32.63
2019-03-26T04:27:27.109Z,30.55
2019-03-26T04:27:58.324Z,30.32
2019-03-26T04:28:29.539Z,30.72
2019-03-26T04:29:00.835Z,31.77
2019-03-26T04:29:32.012Z,27.30
2019-03-26T04:30:03.222Z,31.45
2019-03-26T04:30:34.412Z,25.72
2019-03-26T04:31:05.619Z,30.52
2019-03-26T04:31:36.845Z,29.07
2019-03-26T04:32:08.096Z,28.10
2019-03-26T04:32:39.315Z,28.52
2019-03-26T04:33:10.518Z,26.68
2019-03-26T04:33:41.721Z,30.52
2019-03-26T04:34:12.934Z,26.80
2019-03-26T04:34:44.139Z,26.73
2019-03-26T04:35:15.175Z,25.57
2019-03-26T04:35:46.370Z,25.68
2019-03-26T04:36:25.415Z,31.35
2019-03-26T04:36:50.560Z,27.07
2019-03-26T04:37:21.771Z,27.75
2019-03-26T04:37:52.964Z,26.70
2019-03-26T04:38:24.214Z,26.27
2019-03-26T04:38:55.407Z,25.52
2019-03-26T04:39:26.612Z,24.80
2019-03-26T04:39:57.815Z,26.33
2019-03-26T04:40:29.035Z,26.27
2019-03-26T04:41:00.224Z,26.00
2019-03-26T04:41:31.485Z,28.30
2019-03-26T04:42:02.706Z,28.20
2019-03-26T04:42:33.912Z,24.80
2019-03-26T04:43:05.150Z,25.72
2019-03-26T04:43:36.360Z,24.60
2019-03-26T04:44:07.577Z,24.65
2019-03-26T04:44:38.779Z,26.75
2019-03-26T04:45:10.018Z,24.18
2019-03-26T04:45:41.209Z,23.07
2019-03-26T04:46:12.436Z,24.37
2019-03-26T04:46:43.664Z,25.15
2019-03-26T04:47:14.868Z,23.15
2019-03-26T04:47:46.063Z,21.87
2019-03-26T04:48:17.341Z,18.50
2019-03-26T04:48:48.607Z,20.85
2019-03-26T04:49:19.816Z,22.15
2019-03-26T04:49:51.093Z,19.55
2019-03-26T04:50:22.293Z,20.48
2019-03-26T04:50:53.510Z,20.45
2019-03-26T04:51:24.768Z,21.75
2019-03-26T04:51:55.972Z,19.17
2019-03-26T04:52:27.190Z,20.02
2019-03-26T04:52:58.396Z,19.42
2019-03-26T04:53:29.649Z,18.10
2019-03-26T04:54:00.901Z,21.30
2019-03-26T04:54:32.091Z,18.32
2019-03-26T04:55:03.287Z,18.30
2019-03-26T04:55:34.514Z,19.20
2019-03-26T04:56:05.724Z,18.07
2019-03-26T04:56:36.973Z,21.02
2019-03-26T04:57:08.167Z,17.42
2019-03-26T04:57:39.372Z,20.52
2019-03-26T04:58:10.615Z,21.02
2019-03-26T04:58:43.963Z,18.77
2019-03-26T04:59:14.776Z,19.42
2019-03-26T04:59:45.974Z,20.02
2019-03-26T05:00:17.181Z,21.75
2019-03-26T05:00:48.405Z,21.50
2019-03-26T05:01:19.608Z,22.05
2019-03-26T05:01:50.818Z,21.95
2019-03-26T05:02:22.034Z,21.30
2019-03-26T05:02:53.291Z,22.98
2019-03-26T05:03:24.489Z,27.37
2019-03-26T05:03:55.705Z,26.97
2019-03-26T05:04:26.905Z,23.52
2019-03-26T05:04:58.108Z,25.68
2019-03-26T05:05:29.316Z,28.12
2019-03-26T05:06:00.519Z,27.07
2019-03-26T05:06:37.967Z,25.30
2019-03-26T05:07:04.686Z,27.62
2019-03-26T05:07:35.892Z,26.62
2019-03-26T05:08:07.130Z,27.85
2019-03-26T05:08:38.376Z,24.57
2019-03-26T05:09:09.582Z,23.15
2019-03-26T05:09:40.788Z,22.00
2019-03-26T05:10:11.998Z,26.42
2019-03-26T05:10:43.203Z,22.17
2019-03-26T05:11:14.402Z,21.55
2019-03-26T05:11:45.614Z,22.05
2019-03-26T05:12:16.826Z,22.60
2019-03-26T05:12:48.027Z,25.68
2019-03-26T05:13:19.278Z,25.70
2019-03-26T05:13:50.546Z,26.87
2019-03-26T05:14:21.756Z,25.50
2019-03-26T05:14:52.954Z,22.55
2019-03-26T05:15:24.205Z,24.40
2019-03-26T05:15:55.438Z,23.12
2019-03-26T05:16:26.634Z,23.05
2019-03-26T05:16:57.839Z,22.52
2019-03-26T05:17:29.041Z,23.20
2019-03-26T05:18:00.257Z,24.07
2019-03-26T05:18:31.482Z,23.87
2019-03-26T05:19:02.681Z,25.20
2019-03-26T05:19:33.890Z,25.15
2019-03-26T05:20:05.095Z,25.17
2019-03-26T05:20:36.435Z,23.95
2019-03-26T05:21:07.628Z,22.98
2019-03-26T05:21:38.822Z,22.93
2019-03-26T05:22:23.266Z,24.47
2019-03-26T05:22:43.142Z,26.73
2019-03-26T05:23:14.387Z,25.37
2019-03-26T05:23:45.622Z,24.37
2019-03-26T05:24:16.863Z,25.85
2019-03-26T05:24:48.063Z,23.95
2019-03-26T05:25:19.315Z,22.90
2019-03-26T05:25:50.529Z,24.27
2019-03-26T05:26:21.730Z,22.98
2019-03-26T05:26:52.940Z,25.62
2019-03-26T05:27:24.147Z,22.98
2019-03-26T05:27:55.417Z,25.65
2019-03-26T05:28:26.615Z,22.52
2019-03-26T05:28:57.870Z,23.02
2019-03-26T05:29:29.065Z,23.83
2019-03-26T05:30:00.395Z,22.22
2019-03-26T05:30:33.164Z,24.43
2019-03-26T05:31:04.655Z,23.18
2019-03-26T05:31:35.860Z,27.13
2019-03-26T05:32:07.057Z,24.00
2019-03-26T05:32:38.353Z,24.30
2019-03-26T05:33:09.598Z,23.40
2019-03-26T05:33:40.807Z,23.02
2019-03-26T05:34:12.017Z,23.83
2019-03-26T05:34:43.208Z,24.02
2019-03-26T05:35:14.557Z,23.60
2019-03-26T05:35:45.779Z,23.70
2019-03-26T05:36:17.007Z,23.67
2019-03-26T05:36:51.544Z,22.42
2019-03-26T05:37:21.186Z,24.67
2019-03-26T05:37:52.412Z,23.47
2019-03-26T05:38:23.617Z,22.07
2019-03-26T05:38:54.823Z,21.85
2019-03-26T05:39:26.051Z,24.32
2019-03-26T05:39:57.287Z,24.98
2019-03-26T05:40:28.502Z,24.52
2019-03-26T05:40:59.706Z,21.30
2019-03-26T05:41:30.954Z,25.08
2019-03-26T05:42:02.157Z,22.30
2019-03-26T05:42:33.359Z,22.20
2019-03-26T05:43:04.566Z,21.33
2019-03-26T05:43:35.808Z,22.05
2019-03-26T05:44:07.021Z,25.02
2019-03-26T05:44:38.232Z,23.62
2019-03-26T05:45:09.436Z,21.37
2019-03-26T05:45:40.663Z,24.35
2019-03-26T05:46:11.863Z,22.37
2019-03-26T05:46:43.065Z,22.93
2019-03-26T05:47:14.267Z,22.65
2019-03-26T05:47:45.478Z,21.17
2019-03-26T05:48:16.680Z,21.62
2019-03-26T05:48:47.930Z,23.52
2019-03-26T05:49:19.138Z,22.58
2019-03-26T05:49:50.351Z,21.57
2019-03-26T05:50:21.555Z,24.67
2019-03-26T05:50:52.757Z,23.92
2019-03-26T05:51:23.960Z,22.52
2019-03-26T05:51:55.163Z,24.85
2019-03-26T05:52:26.404Z,21.55
2019-03-26T05:52:57.602Z,27.77
2019-03-26T05:53:28.868Z,25.65
2019-03-26T05:54:00.071Z,23.18
2019-03-26T05:54:31.275Z,25.02
2019-03-26T05:55:02.508Z,23.02
2019-03-26T05:55:33.711Z,26.73
2019-03-26T05:56:04.905Z,23.52
2019-03-26T05:56:36.110Z,20.60
2019-03-26T05:57:07.299Z,23.60
2019-03-26T05:57:38.499Z,21.33
2019-03-26T05:58:09.714Z,27.50
2019-03-26T05:58:40.947Z,21.60
2019-03-26T05:59:12.152Z,23.10
2019-03-26T05:59:44.348Z,21.23
2019-03-26T06:00:15.568Z,20.15
2019-03-26T06:00:46.844Z,22.93
2019-03-26T06:01:18.047Z,19.00
2019-03-26T06:01:49.259Z,21.60
2019-03-26T06:02:20.518Z,21.95
2019-03-26T06:02:51.736Z,21.77
2019-03-26T06:03:22.954Z,21.42
2019-03-26T06:03:54.158Z,25.02
2019-03-26T06:04:25.362Z,24.95
2019-03-26T06:04:56.606Z,21.25
2019-03-26T06:05:27.808Z,19.10
2019-03-26T06:05:59.015Z,21.52
2019-03-26T06:06:30.222Z,20.70
2019-03-26T06:07:05.125Z,21.17
2019-03-26T06:07:34.389Z,24.98
2019-03-26T06:08:05.575Z,21.95
2019-03-26T06:08:36.785Z,22.52
2019-03-26T06:09:07.989Z,20.92
2019-03-26T06:09:39.202Z,20.82
2019-03-26T06:10:10.444Z,23.30
2019-03-26T06:10:41.647Z,22.93
2019-03-26T06:11:12.875Z,20.92
2019-03-26T06:11:44.072Z,21.93
2019-03-26T06:12:15.284Z,21.45
2019-03-26T06:12:46.493Z,16.32
2019-03-26T06:13:17.699Z,19.87
2019-03-26T06:13:48.951Z,19.82
2019-03-26T06:14:20.163Z,18.48
2019-03-26T06:14:51.385Z,19.90
2019-03-26T06:15:22.589Z,18.17
2019-03-26T06:15:53.797Z,21.95
2019-03-26T06:16:37.659Z,19.37
2019-03-26T06:16:57.942Z,16.90
2019-03-26T06:17:29.146Z,16.37
2019-03-26T06:18:00.350Z,16.90
2019-03-26T06:18:31.547Z,16.95
2019-03-26T06:19:02.807Z,17.90
2019-03-26T06:19:34.029Z,19.07
2019-03-26T06:20:05.265Z,17.73
2019-03-26T06:20:36.463Z,17.67
2019-03-26T06:21:07.701Z,17.92
2019-03-26T06:21:38.956Z,17.10
2019-03-26T06:22:10.155Z,16.35
2019-03-26T06:22:41.364Z,13.98
2019-03-26T06:23:12.579Z,14.98
2019-03-26T06:23:43.790Z,14.28
2019-03-26T06:24:15.003Z,16.00
2019-03-26T06:24:46.223Z,17.82
2019-03-26T06:25:17.433Z,14.40
2019-03-26T06:25:48.626Z,16.70
2019-03-26T06:26:19.898Z,16.40
2019-03-26T06:26:51.122Z,18.32
2019-03-26T06:27:22.348Z,15.83
2019-03-26T06:27:53.558Z,18.10
2019-03-26T06:28:24.765Z,17.70
2019-03-26T06:28:55.973Z,15.98
2019-03-26T06:29:27.176Z,15.72
2019-03-26T06:29:58.380Z,18.37
2019-03-26T06:30:29.596Z,21.07
2019-03-26T06:31:00.812Z,16.37
2019-03-26T06:31:32.066Z,13.78
2019-03-26T06:32:03.274Z,19.27
2019-03-26T06:32:34.525Z,15.50
2019-03-26T06:33:05.732Z,16.93
2019-03-26T06:33:36.942Z,15.03
2019-03-26T06:34:10.539Z,17.40
2019-03-26T06:34:41.152Z,16.80
2019-03-26T06:35:12.370Z,14.43
2019-03-26T06:35:43.578Z,17.12
2019-03-26T06:36:14.787Z,15.80
2019-03-26T06:36:46.034Z,16.50
2019-03-26T06:37:18.236Z,16.20
2019-03-26T06:37:49.622Z,17.85
2019-03-26T06:38:20.827Z,14.63
2019-03-26T06:38:52.031Z,15.43
2019-03-26T06:39:23.232Z,17.52
2019-03-26T06:39:54.454Z,17.12
2019-03-26T06:40:25.644Z,15.60
2019-03-26T06:40:56.906Z,16.05
2019-03-26T06:41:28.105Z,15.05
2019-03-26T06:41:59.308Z,14.53
2019-03-26T06:42:30.534Z,15.55
2019-03-26T06:43:01.757Z,14.87